sensor_id;sensor_type;location;lat;lon;timestamp;temperature;humidity
14473;DHT22;7322;50.872;4.386;2022-10-16T00:01:24;15.50;99.90
14473;DHT22;7322;50.872;4.386;2022-10-16T00:03:54;15.50;99.90
14473;DHT22;7322;50.872;4.386;2022-10-16T00:06:21;15.40;99.90
14473;DHT22;7322;50.872;4.386;2022-10-16T00:08:49;15.50;99.90
14473;DHT22;7322;50.872;4.386;2022-10-16T00:11:21;15.40;99.90
14473;DHT22;7322;50.872;4.386;2022-10-16T00:13:52;15.20;1.00
14473;DHT22;7322;50.872;4.386;2022-10-16T00:16:20;15.20;1.00
14473;DHT22;7322;50.872;4.386;2022-10-16T00:18:48;15.40;99.90
14473;DHT22;7322;50.872;4.386;2022-10-16T00:21:18;15.40;99.90
14473;DHT22;7322;50.872;4.386;2022-10-16T00:23:46;15.40;99.90
14473;DHT22;7322;50.872;4.386;2022-10-16T00:26:17;15.40;99.90
14473;DHT22;7322;50.872;4.386;2022-10-16T00:28:45;15.40;1.00
14473;DHT22;7322;50.872;4.386;2022-10-16T00:31:14;15.40;1.00
14473;DHT22;7322;50.872;4.386;2022-10-16T00:33:42;15.60;99.90
14473;DHT22;7322;50.872;4.386;2022-10-16T00:36:11;15.50;38.50
14473;DHT22;7322;50.872;4.386;2022-10-16T00:38:42;15.50;99.90
14473;DHT22;7322;50.872;4.386;2022-10-16T00:41:13;15.50;99.90
14473;DHT22;7322;50.872;4.386;2022-10-16T00:43:42;15.50;99.90
14473;DHT22;7322;50.872;4.386;2022-10-16T00:46:14;15.40;1.00
14473;DHT22;7322;50.872;4.386;2022-10-16T00:48:43;15.40;1.00
14473;DHT22;7322;50.872;4.386;2022-10-16T00:51:12;15.40;1.00
14473;DHT22;7322;50.872;4.386;2022-10-16T00:53:39;15.40;1.00
14473;DHT22;7322;50.872;4.386;2022-10-16T00:56:10;15.30;1.00
14473;DHT22;7322;50.872;4.386;2022-10-16T00:58:38;15.30;51.10
14473;DHT22;7322;50.872;4.386;2022-10-16T01:01:05;15.30;58.40
14473;DHT22;7322;50.872;4.386;2022-10-16T01:03:47;15.40;1.00
14473;DHT22;7322;50.872;4.386;2022-10-16T01:06:35;15.30;77.70
14473;DHT22;7322;50.872;4.386;2022-10-16T01:09:11;15.30;68.30
14473;DHT22;7322;50.872;4.386;2022-10-16T01:11:48;15.30;78.40
14473;DHT22;7322;50.872;4.386;2022-10-16T01:14:22;15.20;1.00
14473;DHT22;7322;50.872;4.386;2022-10-16T01:16:59;15.20;1.00
14473;DHT22;7322;50.872;4.386;2022-10-16T01:19:40;15.30;1.00
14473;DHT22;7322;50.872;4.386;2022-10-16T01:22:11;15.30;1.00
14473;DHT22;7322;50.872;4.386;2022-10-16T01:24:40;15.10;1.00
14473;DHT22;7322;50.872;4.386;2022-10-16T01:27:13;15.20;1.00
14473;DHT22;7322;50.872;4.386;2022-10-16T01:29:49;15.20;1.00
14473;DHT22;7322;50.872;4.386;2022-10-16T01:32:28;15.20;1.00
14473;DHT22;7322;50.872;4.386;2022-10-16T01:35:00;15.30;1.00
14473;DHT22;7322;50.872;4.386;2022-10-16T01:37:34;15.20;1.00
14473;DHT22;7322;50.872;4.386;2022-10-16T01:40:06;15.10;99.90
14473;DHT22;7322;50.872;4.386;2022-10-16T01:42:40;15.10;1.00
14473;DHT22;7322;50.872;4.386;2022-10-16T01:45:10;15.10;1.00
14473;DHT22;7322;50.872;4.386;2022-10-16T01:47:39;15.10;1.00
14473;DHT22;7322;50.872;4.386;2022-10-16T01:50:08;15.10;1.00
14473;DHT22;7322;50.872;4.386;2022-10-16T01:52:37;15.10;1.00
14473;DHT22;7322;50.872;4.386;2022-10-16T01:55:07;15.20;99.90
14473;DHT22;7322;50.872;4.386;2022-10-16T01:57:39;15.10;1.00
14473;DHT22;7322;50.872;4.386;2022-10-16T02:00:11;15.10;1.00
14473;DHT22;7322;50.872;4.386;2022-10-16T02:02:42;15.00;1.00
14473;DHT22;7322;50.872;4.386;2022-10-16T02:05:14;15.00;99.90
14473;DHT22;7322;50.872;4.386;2022-10-16T02:07:42;14.90;99.90
14473;DHT22;7322;50.872;4.386;2022-10-16T02:10:11;15.00;1.00
14473;DHT22;7322;50.872;4.386;2022-10-16T02:12:42;15.00;1.00
14473;DHT22;7322;50.872;4.386;2022-10-16T02:15:17;15.00;1.00
14473;DHT22;7322;50.872;4.386;2022-10-16T02:17:44;15.10;1.00
14473;DHT22;7322;50.872;4.386;2022-10-16T02:20:12;15.10;1.00
14473;DHT22;7322;50.872;4.386;2022-10-16T02:22:41;15.10;91.60
14473;DHT22;7322;50.872;4.386;2022-10-16T02:25:11;15.10;34.70
14473;DHT22;7322;50.872;4.386;2022-10-16T02:27:50;15.10;1.00
14473;DHT22;7322;50.872;4.386;2022-10-16T02:30:25;15.10;99.90
14473;DHT22;7322;50.872;4.386;2022-10-16T02:32:55;15.20;99.90
14473;DHT22;7322;50.872;4.386;2022-10-16T02:35:24;15.10;99.90
14473;DHT22;7322;50.872;4.386;2022-10-16T02:37:53;15.00;99.90
14473;DHT22;7322;50.872;4.386;2022-10-16T02:40:21;15.00;99.90
14473;DHT22;7322;50.872;4.386;2022-10-16T02:42:52;15.00;99.90
14473;DHT22;7322;50.872;4.386;2022-10-16T02:45:19;14.90;1.00
14473;DHT22;7322;50.872;4.386;2022-10-16T02:47:46;14.90;99.90
14473;DHT22;7322;50.872;4.386;2022-10-16T02:50:13;14.90;99.90
14473;DHT22;7322;50.872;4.386;2022-10-16T02:52:41;14.90;1.00
14473;DHT22;7322;50.872;4.386;2022-10-16T02:55:08;15.00;99.90
14473;DHT22;7322;50.872;4.386;2022-10-16T02:57:35;14.90;99.90
14473;DHT22;7322;50.872;4.386;2022-10-16T03:00:05;15.00;99.90
14473;DHT22;7322;50.872;4.386;2022-10-16T03:02:32;15.00;1.00
14473;DHT22;7322;50.872;4.386;2022-10-16T03:04:59;15.00;99.90
14473;DHT22;7322;50.872;4.386;2022-10-16T03:07:27;14.90;1.00
14473;DHT22;7322;50.872;4.386;2022-10-16T03:09:54;15.00;24.60
14473;DHT22;7322;50.872;4.386;2022-10-16T03:12:21;15.00;99.90
14473;DHT22;7322;50.872;4.386;2022-10-16T03:14:48;15.00;99.90
14473;DHT22;7322;50.872;4.386;2022-10-16T03:17:16;15.00;1.00
14473;DHT22;7322;50.872;4.386;2022-10-16T03:19:43;14.90;1.00
14473;DHT22;7322;50.872;4.386;2022-10-16T03:22:11;14.90;76.80
14473;DHT22;7322;50.872;4.386;2022-10-16T03:24:38;14.80;99.90
14473;DHT22;7322;50.872;4.386;2022-10-16T03:27:05;14.80;1.00
14473;DHT22;7322;50.872;4.386;2022-10-16T03:29:33;14.70;18.00
14473;DHT22;7322;50.872;4.386;2022-10-16T03:32:00;14.80;99.90
14473;DHT22;7322;50.872;4.386;2022-10-16T03:34:29;14.90;1.00
14473;DHT22;7322;50.872;4.386;2022-10-16T03:36:56;14.90;99.90
14473;DHT22;7322;50.872;4.386;2022-10-16T03:39:23;14.90;1.00
14473;DHT22;7322;50.872;4.386;2022-10-16T03:41:50;14.80;99.90
14473;DHT22;7322;50.872;4.386;2022-10-16T03:44:17;14.70;1.00
14473;DHT22;7322;50.872;4.386;2022-10-16T03:46:44;14.70;99.90
14473;DHT22;7322;50.872;4.386;2022-10-16T03:49:12;14.70;99.90
14473;DHT22;7322;50.872;4.386;2022-10-16T03:51:40;14.80;1.00
14473;DHT22;7322;50.872;4.386;2022-10-16T03:54:07;14.70;99.90
14473;DHT22;7322;50.872;4.386;2022-10-16T03:56:34;14.70;1.00
14473;DHT22;7322;50.872;4.386;2022-10-16T03:59:02;14.70;94.60
14473;DHT22;7322;50.872;4.386;2022-10-16T04:01:29;14.90;99.90
14473;DHT22;7322;50.872;4.386;2022-10-16T04:03:58;14.90;99.90
14473;DHT22;7322;50.872;4.386;2022-10-16T04:06:24;14.80;1.00
14473;DHT22;7322;50.872;4.386;2022-10-16T04:08:55;14.90;1.00
14473;DHT22;7322;50.872;4.386;2022-10-16T04:11:22;14.90;99.90
14473;DHT22;7322;50.872;4.386;2022-10-16T04:13:49;14.90;99.90
14473;DHT22;7322;50.872;4.386;2022-10-16T04:16:17;14.90;1.00
14473;DHT22;7322;50.872;4.386;2022-10-16T04:18:45;15.00;99.90
14473;DHT22;7322;50.872;4.386;2022-10-16T04:21:12;14.90;31.30
14473;DHT22;7322;50.872;4.386;2022-10-16T04:23:39;14.80;1.00
14473;DHT22;7322;50.872;4.386;2022-10-16T04:26:09;14.80;1.00
14473;DHT22;7322;50.872;4.386;2022-10-16T04:28:38;14.80;99.90
14473;DHT22;7322;50.872;4.386;2022-10-16T04:31:06;14.80;1.00
14473;DHT22;7322;50.872;4.386;2022-10-16T04:33:33;14.80;1.00
14473;DHT22;7322;50.872;4.386;2022-10-16T04:36:01;14.70;99.90
14473;DHT22;7322;50.872;4.386;2022-10-16T04:38:31;14.70;1.00
14473;DHT22;7322;50.872;4.386;2022-10-16T04:40:59;14.80;1.00
14473;DHT22;7322;50.872;4.386;2022-10-16T04:43:27;14.80;99.90
14473;DHT22;7322;50.872;4.386;2022-10-16T04:45:54;14.80;99.90
14473;DHT22;7322;50.872;4.386;2022-10-16T04:48:22;14.80;99.90
14473;DHT22;7322;50.872;4.386;2022-10-16T04:50:50;14.90;1.00
14473;DHT22;7322;50.872;4.386;2022-10-16T04:53:17;14.80;99.90
14473;DHT22;7322;50.872;4.386;2022-10-16T04:55:46;14.80;99.90
14473;DHT22;7322;50.872;4.386;2022-10-16T04:58:13;14.90;99.90
14473;DHT22;7322;50.872;4.386;2022-10-16T05:00:43;14.80;1.00
14473;DHT22;7322;50.872;4.386;2022-10-16T05:03:11;14.80;1.00
14473;DHT22;7322;50.872;4.386;2022-10-16T05:05:42;14.70;99.90
14473;DHT22;7322;50.872;4.386;2022-10-16T05:08:16;14.80;1.00
14473;DHT22;7322;50.872;4.386;2022-10-16T05:10:43;14.90;99.90
14473;DHT22;7322;50.872;4.386;2022-10-16T05:13:11;14.90;1.00
14473;DHT22;7322;50.872;4.386;2022-10-16T05:15:38;14.90;1.00
14473;DHT22;7322;50.872;4.386;2022-10-16T05:18:07;14.80;58.00
14473;DHT22;7322;50.872;4.386;2022-10-16T05:20:34;14.90;87.30
14473;DHT22;7322;50.872;4.386;2022-10-16T05:23:01;14.80;99.90
14473;DHT22;7322;50.872;4.386;2022-10-16T05:25:28;14.90;1.00
14473;DHT22;7322;50.872;4.386;2022-10-16T05:27:55;14.80;49.40
14473;DHT22;7322;50.872;4.386;2022-10-16T05:30:23;14.80;99.90
14473;DHT22;7322;50.872;4.386;2022-10-16T05:32:51;14.80;99.90
14473;DHT22;7322;50.872;4.386;2022-10-16T05:35:19;14.80;25.40
14473;DHT22;7322;50.872;4.386;2022-10-16T05:37:47;14.70;1.00
14473;DHT22;7322;50.872;4.386;2022-10-16T05:40:16;14.70;56.90
14473;DHT22;7322;50.872;4.386;2022-10-16T05:42:43;14.60;97.40
14473;DHT22;7322;50.872;4.386;2022-10-16T05:45:11;14.70;99.90
14473;DHT22;7322;50.872;4.386;2022-10-16T05:47:38;14.70;1.00
14473;DHT22;7322;50.872;4.386;2022-10-16T05:50:06;14.60;1.00
14473;DHT22;7322;50.872;4.386;2022-10-16T05:52:35;14.70;1.00
14473;DHT22;7322;50.872;4.386;2022-10-16T05:55:02;14.70;99.90
14473;DHT22;7322;50.872;4.386;2022-10-16T05:57:29;14.70;1.00
14473;DHT22;7322;50.872;4.386;2022-10-16T05:59:57;14.70;1.00
14473;DHT22;7322;50.872;4.386;2022-10-16T06:02:24;14.60;1.00
14473;DHT22;7322;50.872;4.386;2022-10-16T06:04:57;14.60;26.60
14473;DHT22;7322;50.872;4.386;2022-10-16T06:07:25;14.50;94.60
14473;DHT22;7322;50.872;4.386;2022-10-16T06:09:54;14.50;55.30
14473;DHT22;7322;50.872;4.386;2022-10-16T06:12:21;14.60;1.00
14473;DHT22;7322;50.872;4.386;2022-10-16T06:14:48;14.60;1.00
14473;DHT22;7322;50.872;4.386;2022-10-16T06:17:18;14.60;1.00
14473;DHT22;7322;50.872;4.386;2022-10-16T06:19:45;14.60;1.00
14473;DHT22;7322;50.872;4.386;2022-10-16T06:22:12;14.70;1.00
14473;DHT22;7322;50.872;4.386;2022-10-16T06:24:39;14.70;99.90
14473;DHT22;7322;50.872;4.386;2022-10-16T06:27:08;14.80;1.00
14473;DHT22;7322;50.872;4.386;2022-10-16T06:29:36;14.80;1.00
14473;DHT22;7322;50.872;4.386;2022-10-16T06:32:03;14.80;1.00
14473;DHT22;7322;50.872;4.386;2022-10-16T06:34:31;14.80;1.00
14473;DHT22;7322;50.872;4.386;2022-10-16T06:36:58;14.80;1.00
14473;DHT22;7322;50.872;4.386;2022-10-16T06:39:25;14.80;1.00
14473;DHT22;7322;50.872;4.386;2022-10-16T06:41:53;14.80;1.00
14473;DHT22;7322;50.872;4.386;2022-10-16T06:44:21;14.80;99.90
14473;DHT22;7322;50.872;4.386;2022-10-16T06:46:50;14.80;1.00
14473;DHT22;7322;50.872;4.386;2022-10-16T06:49:18;14.80;1.00
14473;DHT22;7322;50.872;4.386;2022-10-16T06:51:49;14.80;1.00
14473;DHT22;7322;50.872;4.386;2022-10-16T06:54:18;14.90;1.00
14473;DHT22;7322;50.872;4.386;2022-10-16T06:56:45;15.00;39.00
14473;DHT22;7322;50.872;4.386;2022-10-16T06:59:13;15.00;99.90
14473;DHT22;7322;50.872;4.386;2022-10-16T07:01:42;15.00;99.90
14473;DHT22;7322;50.872;4.386;2022-10-16T07:04:09;15.00;99.90
14473;DHT22;7322;50.872;4.386;2022-10-16T07:06:36;15.00;95.00
14473;DHT22;7322;50.872;4.386;2022-10-16T07:09:06;15.00;99.90
14473;DHT22;7322;50.872;4.386;2022-10-16T07:11:39;15.10;99.90
14473;DHT22;7322;50.872;4.386;2022-10-16T07:16:44;15.10;1.00
14473;DHT22;7322;50.872;4.386;2022-10-16T07:19:11;15.00;99.90
14473;DHT22;7322;50.872;4.386;2022-10-16T07:21:41;15.00;99.90
14473;DHT22;7322;50.872;4.386;2022-10-16T07:24:12;15.10;1.00
14473;DHT22;7322;50.872;4.386;2022-10-16T07:26:40;15.10;1.00
14473;DHT22;7322;50.872;4.386;2022-10-16T07:29:12;15.00;1.00
14473;DHT22;7322;50.872;4.386;2022-10-16T07:31:39;15.00;99.90
14473;DHT22;7322;50.872;4.386;2022-10-16T07:34:10;15.00;1.00
14473;DHT22;7322;50.872;4.386;2022-10-16T07:36:38;15.10;99.90
14473;DHT22;7322;50.872;4.386;2022-10-16T07:39:05;15.20;99.90
14473;DHT22;7322;50.872;4.386;2022-10-16T07:41:32;15.10;1.00
14473;DHT22;7322;50.872;4.386;2022-10-16T07:44:03;15.10;1.00
14473;DHT22;7322;50.872;4.386;2022-10-16T07:46:30;15.10;1.00
14473;DHT22;7322;50.872;4.386;2022-10-16T07:49:00;15.10;1.00
14473;DHT22;7322;50.872;4.386;2022-10-16T07:51:28;15.10;99.90
14473;DHT22;7322;50.872;4.386;2022-10-16T07:53:55;15.10;99.90
14473;DHT22;7322;50.872;4.386;2022-10-16T07:56:22;15.20;99.90
14473;DHT22;7322;50.872;4.386;2022-10-16T07:58:50;15.10;99.70
14473;DHT22;7322;50.872;4.386;2022-10-16T08:01:18;15.20;1.00
14473;DHT22;7322;50.872;4.386;2022-10-16T08:03:47;15.30;1.00
14473;DHT22;7322;50.872;4.386;2022-10-16T08:06:14;15.30;99.90
14473;DHT22;7322;50.872;4.386;2022-10-16T08:08:43;15.30;1.00
14473;DHT22;7322;50.872;4.386;2022-10-16T08:11:09;15.30;1.00
14473;DHT22;7322;50.872;4.386;2022-10-16T08:13:37;15.30;1.00
14473;DHT22;7322;50.872;4.386;2022-10-16T08:16:04;15.30;99.90
14473;DHT22;7322;50.872;4.386;2022-10-16T08:18:33;15.40;7.90
14473;DHT22;7322;50.872;4.386;2022-10-16T08:21:01;15.50;1.00
14473;DHT22;7322;50.872;4.386;2022-10-16T08:23:29;15.50;99.90
14473;DHT22;7322;50.872;4.386;2022-10-16T08:26:03;15.60;1.00
14473;DHT22;7322;50.872;4.386;2022-10-16T08:28:30;15.60;2.60
14473;DHT22;7322;50.872;4.386;2022-10-16T08:31:05;15.70;1.00
14473;DHT22;7322;50.872;4.386;2022-10-16T08:33:32;15.80;1.00
14473;DHT22;7322;50.872;4.386;2022-10-16T08:36:02;15.70;99.90
14473;DHT22;7322;50.872;4.386;2022-10-16T08:38:29;15.90;1.00
14473;DHT22;7322;50.872;4.386;2022-10-16T08:41:09;15.90;1.00
14473;DHT22;7322;50.872;4.386;2022-10-16T08:43:56;16.00;99.90
14473;DHT22;7322;50.872;4.386;2022-10-16T08:46:37;16.00;1.00
14473;DHT22;7322;50.872;4.386;2022-10-16T08:49:12;16.10;1.00
14473;DHT22;7322;50.872;4.386;2022-10-16T08:51:40;16.10;1.00
14473;DHT22;7322;50.872;4.386;2022-10-16T08:54:21;16.00;1.00
14473;DHT22;7322;50.872;4.386;2022-10-16T08:56:50;16.10;1.00
14473;DHT22;7322;50.872;4.386;2022-10-16T08:59:18;16.10;1.00
14473;DHT22;7322;50.872;4.386;2022-10-16T09:01:50;16.10;1.00
14473;DHT22;7322;50.872;4.386;2022-10-16T09:04:44;16.10;1.00
14473;DHT22;7322;50.872;4.386;2022-10-16T09:07:18;16.20;1.00
14473;DHT22;7322;50.872;4.386;2022-10-16T09:09:58;16.30;99.90
14473;DHT22;7322;50.872;4.386;2022-10-16T09:12:32;16.40;99.90
14473;DHT22;7322;50.872;4.386;2022-10-16T09:15:11;16.40;99.90
14473;DHT22;7322;50.872;4.386;2022-10-16T09:17:48;16.40;99.90
14473;DHT22;7322;50.872;4.386;2022-10-16T09:20:23;16.60;1.00
14473;DHT22;7322;50.872;4.386;2022-10-16T09:22:55;16.70;1.00
14473;DHT22;7322;50.872;4.386;2022-10-16T09:25:27;16.70;1.00
14473;DHT22;7322;50.872;4.386;2022-10-16T09:28:12;16.90;99.90
14473;DHT22;7322;50.872;4.386;2022-10-16T09:30:39;17.10;99.90
14473;DHT22;7322;50.872;4.386;2022-10-16T09:33:08;17.20;1.00
14473;DHT22;7322;50.872;4.386;2022-10-16T09:35:38;17.30;1.00
14473;DHT22;7322;50.872;4.386;2022-10-16T09:38:07;17.30;1.00
14473;DHT22;7322;50.872;4.386;2022-10-16T09:40:37;17.40;1.00
14473;DHT22;7322;50.872;4.386;2022-10-16T09:43:21;17.60;1.00
14473;DHT22;7322;50.872;4.386;2022-10-16T09:46:01;17.70;1.00
14473;DHT22;7322;50.872;4.386;2022-10-16T09:48:33;17.90;1.00
14473;DHT22;7322;50.872;4.386;2022-10-16T09:51:03;18.30;99.90
14473;DHT22;7322;50.872;4.386;2022-10-16T09:53:41;18.50;99.90
14473;DHT22;7322;50.872;4.386;2022-10-16T09:56:11;18.90;99.90
14473;DHT22;7322;50.872;4.386;2022-10-16T09:58:49;19.00;99.90
14473;DHT22;7322;50.872;4.386;2022-10-16T10:01:16;19.00;99.90
14473;DHT22;7322;50.872;4.386;2022-10-16T10:03:44;19.20;77.70
14473;DHT22;7322;50.872;4.386;2022-10-16T10:06:18;19.40;31.50
14473;DHT22;7322;50.872;4.386;2022-10-16T10:08:58;19.70;17.50
14473;DHT22;7322;50.872;4.386;2022-10-16T10:11:40;19.90;1.00
14473;DHT22;7322;50.872;4.386;2022-10-16T10:14:17;20.20;1.00
14473;DHT22;7322;50.872;4.386;2022-10-16T10:16:45;20.50;1.00
14473;DHT22;7322;50.872;4.386;2022-10-16T10:19:15;20.80;1.00
14473;DHT22;7322;50.872;4.386;2022-10-16T10:21:43;21.00;1.00
14473;DHT22;7322;50.872;4.386;2022-10-16T10:24:12;21.10;1.00
14473;DHT22;7322;50.872;4.386;2022-10-16T10:26:44;21.00;1.00
14473;DHT22;7322;50.872;4.386;2022-10-16T10:29:21;21.20;1.00
14473;DHT22;7322;50.872;4.386;2022-10-16T10:31:53;21.20;1.00
14473;DHT22;7322;50.872;4.386;2022-10-16T10:34:35;21.30;1.00
14473;DHT22;7322;50.872;4.386;2022-10-16T10:37:19;21.50;1.00
14473;DHT22;7322;50.872;4.386;2022-10-16T10:39:57;21.70;1.00
14473;DHT22;7322;50.872;4.386;2022-10-16T10:42:29;21.90;1.00
14473;DHT22;7322;50.872;4.386;2022-10-16T10:45:16;22.00;1.00
14473;DHT22;7322;50.872;4.386;2022-10-16T10:47:52;21.80;1.00
14473;DHT22;7322;50.872;4.386;2022-10-16T10:50:26;21.60;1.00
14473;DHT22;7322;50.872;4.386;2022-10-16T10:53:05;21.10;1.00
14473;DHT22;7322;50.872;4.386;2022-10-16T10:55:43;21.10;1.00
14473;DHT22;7322;50.872;4.386;2022-10-16T11:01:09;21.30;1.00
14473;DHT22;7322;50.872;4.386;2022-10-16T11:06:37;21.40;1.00
14473;DHT22;7322;50.872;4.386;2022-10-16T11:09:09;21.80;1.00
14473;DHT22;7322;50.872;4.386;2022-10-16T11:11:41;21.90;1.00
14473;DHT22;7322;50.872;4.386;2022-10-16T11:14:15;22.00;1.00
14473;DHT22;7322;50.872;4.386;2022-10-16T11:16:49;21.90;1.00
14473;DHT22;7322;50.872;4.386;2022-10-16T11:19:25;21.70;1.00
14473;DHT22;7322;50.872;4.386;2022-10-16T11:22:09;21.70;1.00
14473;DHT22;7322;50.872;4.386;2022-10-16T11:24:45;21.80;1.00
14473;DHT22;7322;50.872;4.386;2022-10-16T11:27:17;22.30;1.00
14473;DHT22;7322;50.872;4.386;2022-10-16T11:29:50;22.00;1.00
14473;DHT22;7322;50.872;4.386;2022-10-16T11:32:27;21.50;1.00
14473;DHT22;7322;50.872;4.386;2022-10-16T11:35:00;21.10;1.00
14473;DHT22;7322;50.872;4.386;2022-10-16T11:37:39;20.90;1.00
14473;DHT22;7322;50.872;4.386;2022-10-16T11:40:19;20.80;1.00
14473;DHT22;7322;50.872;4.386;2022-10-16T11:42:50;21.30;1.00
14473;DHT22;7322;50.872;4.386;2022-10-16T11:45:26;21.80;1.00
14473;DHT22;7322;50.872;4.386;2022-10-16T11:48:04;22.00;1.00
14473;DHT22;7322;50.872;4.386;2022-10-16T11:50:39;21.90;1.00
14473;DHT22;7322;50.872;4.386;2022-10-16T11:53:16;21.90;1.00
14473;DHT22;7322;50.872;4.386;2022-10-16T11:55:45;21.80;1.00
14473;DHT22;7322;50.872;4.386;2022-10-16T11:58:33;21.60;1.00
14473;DHT22;7322;50.872;4.386;2022-10-16T12:01:17;21.30;1.00
14473;DHT22;7322;50.872;4.386;2022-10-16T12:07:10;21.00;1.00
14473;DHT22;7322;50.872;4.386;2022-10-16T12:09:44;20.90;1.00
14473;DHT22;7322;50.872;4.386;2022-10-16T12:12:37;20.80;1.00
14473;DHT22;7322;50.872;4.386;2022-10-16T12:15:20;20.90;1.00
14473;DHT22;7322;50.872;4.386;2022-10-16T12:17:49;21.00;1.00
14473;DHT22;7322;50.872;4.386;2022-10-16T12:20:25;21.00;1.00
14473;DHT22;7322;50.872;4.386;2022-10-16T12:22:56;21.00;1.00
14473;DHT22;7322;50.872;4.386;2022-10-16T12:25:27;21.20;1.00
14473;DHT22;7322;50.872;4.386;2022-10-16T12:28:00;21.00;1.00
14473;DHT22;7322;50.872;4.386;2022-10-16T12:30:30;21.00;1.00
14473;DHT22;7322;50.872;4.386;2022-10-16T12:32:59;21.00;1.00
14473;DHT22;7322;50.872;4.386;2022-10-16T12:35:30;20.90;1.00
14473;DHT22;7322;50.872;4.386;2022-10-16T12:38:16;20.90;1.00
14473;DHT22;7322;50.872;4.386;2022-10-16T12:40:45;20.90;1.00
14473;DHT22;7322;50.872;4.386;2022-10-16T12:43:27;20.70;1.00
14473;DHT22;7322;50.872;4.386;2022-10-16T12:46:03;20.90;1.00
14473;DHT22;7322;50.872;4.386;2022-10-16T12:48:31;20.80;1.00
14473;DHT22;7322;50.872;4.386;2022-10-16T12:51:10;20.50;1.00
14473;DHT22;7322;50.872;4.386;2022-10-16T12:53:40;20.50;1.00
14473;DHT22;7322;50.872;4.386;2022-10-16T12:56:14;20.40;1.00
14473;DHT22;7322;50.872;4.386;2022-10-16T12:58:53;20.50;1.00
14473;DHT22;7322;50.872;4.386;2022-10-16T13:01:31;20.40;1.00
14473;DHT22;7322;50.872;4.386;2022-10-16T13:07:24;20.50;1.00
14473;DHT22;7322;50.872;4.386;2022-10-16T13:10:06;20.50;1.00
14473;DHT22;7322;50.872;4.386;2022-10-16T13:12:56;20.70;1.00
14473;DHT22;7322;50.872;4.386;2022-10-16T13:15:49;20.60;1.00
14473;DHT22;7322;50.872;4.386;2022-10-16T13:18:31;20.60;1.00
14473;DHT22;7322;50.872;4.386;2022-10-16T13:21:11;20.50;1.00
14473;DHT22;7322;50.872;4.386;2022-10-16T13:23:47;20.50;1.00
14473;DHT22;7322;50.872;4.386;2022-10-16T13:26:26;20.30;1.00
14473;DHT22;7322;50.872;4.386;2022-10-16T13:28:59;20.20;1.00
14473;DHT22;7322;50.872;4.386;2022-10-16T13:31:28;20.20;1.00
14473;DHT22;7322;50.872;4.386;2022-10-16T13:33:58;20.20;1.00
14473;DHT22;7322;50.872;4.386;2022-10-16T13:36:28;20.10;1.00
14473;DHT22;7322;50.872;4.386;2022-10-16T13:39:06;19.90;1.00
14473;DHT22;7322;50.872;4.386;2022-10-16T13:41:35;19.90;1.00
14473;DHT22;7322;50.872;4.386;2022-10-16T13:44:03;19.90;1.00
14473;DHT22;7322;50.872;4.386;2022-10-16T13:46:36;20.10;1.00
14473;DHT22;7322;50.872;4.386;2022-10-16T13:49:04;20.10;1.00
14473;DHT22;7322;50.872;4.386;2022-10-16T13:51:37;20.10;1.00
14473;DHT22;7322;50.872;4.386;2022-10-16T13:54:17;20.10;1.00
14473;DHT22;7322;50.872;4.386;2022-10-16T13:56:53;20.10;1.00
14473;DHT22;7322;50.872;4.386;2022-10-16T13:59:26;20.20;1.00
14473;DHT22;7322;50.872;4.386;2022-10-16T14:01:59;20.10;1.00
14473;DHT22;7322;50.872;4.386;2022-10-16T14:04:54;20.10;1.00
14473;DHT22;7322;50.872;4.386;2022-10-16T14:07:27;20.00;1.00
14473;DHT22;7322;50.872;4.386;2022-10-16T14:09:55;20.00;1.00
14473;DHT22;7322;50.872;4.386;2022-10-16T14:12:33;19.90;1.00
14473;DHT22;7322;50.872;4.386;2022-10-16T14:15:01;19.70;1.00
14473;DHT22;7322;50.872;4.386;2022-10-16T14:17:29;19.70;1.00
14473;DHT22;7322;50.872;4.386;2022-10-16T14:19:58;19.80;1.00
14473;DHT22;7322;50.872;4.386;2022-10-16T14:22:30;19.90;1.00
14473;DHT22;7322;50.872;4.386;2022-10-16T14:25:01;19.90;1.00
14473;DHT22;7322;50.872;4.386;2022-10-16T14:27:37;20.00;1.00
14473;DHT22;7322;50.872;4.386;2022-10-16T14:30:13;20.00;1.00
14473;DHT22;7322;50.872;4.386;2022-10-16T14:32:55;20.00;1.00
14473;DHT22;7322;50.872;4.386;2022-10-16T14:35:29;20.00;1.00
14473;DHT22;7322;50.872;4.386;2022-10-16T14:37:57;20.10;1.00
14473;DHT22;7322;50.872;4.386;2022-10-16T14:40:26;19.90;1.00
14473;DHT22;7322;50.872;4.386;2022-10-16T14:42:55;20.00;1.00
14473;DHT22;7322;50.872;4.386;2022-10-16T14:45:24;20.00;1.00
14473;DHT22;7322;50.872;4.386;2022-10-16T14:47:55;20.00;1.00
14473;DHT22;7322;50.872;4.386;2022-10-16T14:50:24;20.00;1.00
14473;DHT22;7322;50.872;4.386;2022-10-16T14:52:53;20.10;1.00
14473;DHT22;7322;50.872;4.386;2022-10-16T14:55:22;20.10;1.00
14473;DHT22;7322;50.872;4.386;2022-10-16T14:57:49;20.10;1.00
14473;DHT22;7322;50.872;4.386;2022-10-16T15:00:20;20.10;1.00
14473;DHT22;7322;50.872;4.386;2022-10-16T15:02:49;20.00;1.00
14473;DHT22;7322;50.872;4.386;2022-10-16T15:05:18;20.00;1.00
14473;DHT22;7322;50.872;4.386;2022-10-16T15:07:46;20.10;1.00
14473;DHT22;7322;50.872;4.386;2022-10-16T15:10:16;20.10;1.00
14473;DHT22;7322;50.872;4.386;2022-10-16T15:12:43;20.00;1.00
14473;DHT22;7322;50.872;4.386;2022-10-16T15:15:31;19.90;1.00
14473;DHT22;7322;50.872;4.386;2022-10-16T15:17:59;19.90;1.00
14473;DHT22;7322;50.872;4.386;2022-10-16T15:20:30;19.90;1.00
14473;DHT22;7322;50.872;4.386;2022-10-16T15:22:59;19.90;1.00
14473;DHT22;7322;50.872;4.386;2022-10-16T15:25:31;19.90;1.00
14473;DHT22;7322;50.872;4.386;2022-10-16T15:27:59;20.00;1.00
14473;DHT22;7322;50.872;4.386;2022-10-16T15:30:27;19.90;1.00
14473;DHT22;7322;50.872;4.386;2022-10-16T15:32:54;19.90;1.00
14473;DHT22;7322;50.872;4.386;2022-10-16T15:35:22;19.90;1.00
14473;DHT22;7322;50.872;4.386;2022-10-16T15:37:49;19.90;1.00
14473;DHT22;7322;50.872;4.386;2022-10-16T15:40:17;19.60;1.00
14473;DHT22;7322;50.872;4.386;2022-10-16T15:42:44;19.60;1.00
14473;DHT22;7322;50.872;4.386;2022-10-16T15:45:12;19.60;1.00
14473;DHT22;7322;50.872;4.386;2022-10-16T15:47:41;19.50;1.00
14473;DHT22;7322;50.872;4.386;2022-10-16T15:50:09;19.50;1.00
14473;DHT22;7322;50.872;4.386;2022-10-16T15:52:40;19.50;1.00
14473;DHT22;7322;50.872;4.386;2022-10-16T15:55:08;19.50;1.00
14473;DHT22;7322;50.872;4.386;2022-10-16T15:57:36;19.40;1.00
14473;DHT22;7322;50.872;4.386;2022-10-16T16:00:08;19.40;1.00
14473;DHT22;7322;50.872;4.386;2022-10-16T16:02:35;19.30;1.00
14473;DHT22;7322;50.872;4.386;2022-10-16T16:05:04;19.30;1.00
14473;DHT22;7322;50.872;4.386;2022-10-16T16:07:33;19.20;1.00
14473;DHT22;7322;50.872;4.386;2022-10-16T16:10:01;19.20;1.00
14473;DHT22;7322;50.872;4.386;2022-10-16T16:12:28;19.10;6.10
14473;DHT22;7322;50.872;4.386;2022-10-16T16:14:54;19.00;3.40
14473;DHT22;7322;50.872;4.386;2022-10-16T16:17:21;19.10;20.50
14473;DHT22;7322;50.872;4.386;2022-10-16T16:19:49;19.20;58.60
14473;DHT22;7322;50.872;4.386;2022-10-16T16:22:18;19.20;34.60
14473;DHT22;7322;50.872;4.386;2022-10-16T16:24:45;19.20;61.90
14473;DHT22;7322;50.872;4.386;2022-10-16T16:27:12;19.20;61.60
14473;DHT22;7322;50.872;4.386;2022-10-16T16:29:39;19.20;45.30
14473;DHT22;7322;50.872;4.386;2022-10-16T16:32:07;19.30;27.60
14473;DHT22;7322;50.872;4.386;2022-10-16T16:34:34;19.20;35.50
14473;DHT22;7322;50.872;4.386;2022-10-16T16:37:01;19.10;63.90